sensor_id;sensor_type;location;lat;lon;timestamp;P1;durP1;ratioP1;P2;durP2;ratioP2
15006;SDS011;7599;50.748;13.142;2023-07-20T00:00:32;1.80;;;1.10;;
15006;SDS011;7599;50.748;13.142;2023-07-20T00:03:50;2.47;;;1.63;;
15006;SDS011;7599;50.748;13.142;2023-07-20T00:07:21;1.63;;;1.27;;
15006;SDS011;7599;50.748;13.142;2023-07-20T00:10:39;2.42;;;1.67;;
15006;SDS011;7599;50.748;13.142;2023-07-20T00:14:19;3.88;;;1.50;;
15006;SDS011;7599;50.748;13.142;2023-07-20T00:17:29;1.80;;;1.33;;
15006;SDS011;7599;50.748;13.142;2023-07-20T00:20:55;2.35;;;1.50;;
15006;SDS011;7599;50.748;13.142;2023-07-20T00:24:21;3.03;;;1.58;;
15006;SDS011;7599;50.748;13.142;2023-07-20T00:28:13;3.20;;;1.60;;
15006;SDS011;7599;50.748;13.142;2023-07-20T00:31:38;2.78;;;1.42;;
15006;SDS011;7599;50.748;13.142;2023-07-20T00:34:58;1.60;;;1.20;;
15006;SDS011;7599;50.748;13.142;2023-07-20T00:38:07;2.22;;;1.42;;
15006;SDS011;7599;50.748;13.142;2023-07-20T00:41:10;2.35;;;1.50;;
15006;SDS011;7599;50.748;13.142;2023-07-20T00:44:43;2.85;;;1.45;;
15006;SDS011;7599;50.748;13.142;2023-07-20T00:48:04;2.28;;;1.75;;
15006;SDS011;7599;50.748;13.142;2023-07-20T00:51:10;3.35;;;1.70;;
15006;SDS011;7599;50.748;13.142;2023-07-20T00:54:53;2.35;;;1.38;;
15006;SDS011;7599;50.748;13.142;2023-07-20T00:58:34;2.75;;;2.13;;
15006;SDS011;7599;50.748;13.142;2023-07-20T01:05:19;2.28;;;1.23;;
15006;SDS011;7599;50.748;13.142;2023-07-20T01:08:24;2.97;;;1.70;;
15006;SDS011;7599;50.748;13.142;2023-07-20T01:11:36;2.63;;;1.38;;
15006;SDS011;7599;50.748;13.142;2023-07-20T01:14:44;2.67;;;1.17;;
15006;SDS011;7599;50.748;13.142;2023-07-20T01:17:47;3.05;;;1.50;;
15006;SDS011;7599;50.748;13.142;2023-07-20T01:20:51;3.22;;;1.17;;
15006;SDS011;7599;50.748;13.142;2023-07-20T01:31:19;2.95;;;1.20;;
15006;SDS011;7599;50.748;13.142;2023-07-20T01:34:24;3.13;;;1.50;;
15006;SDS011;7599;50.748;13.142;2023-07-20T01:37:28;2.42;;;1.20;;
15006;SDS011;7599;50.748;13.142;2023-07-20T01:40:34;2.25;;;1.52;;
15006;SDS011;7599;50.748;13.142;2023-07-20T01:43:37;2.88;;;1.63;;
15006;SDS011;7599;50.748;13.142;2023-07-20T01:46:41;2.67;;;1.48;;
15006;SDS011;7599;50.748;13.142;2023-07-20T01:49:44;1.65;;;1.30;;
15006;SDS011;7599;50.748;13.142;2023-07-20T01:52:46;2.97;;;1.30;;
15006;SDS011;7599;50.748;13.142;2023-07-20T01:55:49;4.90;;;1.35;;
15006;SDS011;7599;50.748;13.142;2023-07-20T01:58:56;2.35;;;1.38;;
15006;SDS011;7599;50.748;13.142;2023-07-20T02:02:00;3.55;;;1.52;;
15006;SDS011;7599;50.748;13.142;2023-07-20T02:05:03;2.50;;;1.73;;
15006;SDS011;7599;50.748;13.142;2023-07-20T02:08:06;4.38;;;2.15;;
15006;SDS011;7599;50.748;13.142;2023-07-20T02:11:09;3.65;;;1.58;;
15006;SDS011;7599;50.748;13.142;2023-07-20T02:14:12;3.67;;;1.48;;
15006;SDS011;7599;50.748;13.142;2023-07-20T02:17:16;1.63;;;1.17;;
15006;SDS011;7599;50.748;13.142;2023-07-20T02:20:19;2.40;;;1.30;;
15006;SDS011;7599;50.748;13.142;2023-07-20T02:23:22;2.22;;;1.48;;
15006;SDS011;7599;50.748;13.142;2023-07-20T02:26:25;3.00;;;1.50;;
15006;SDS011;7599;50.748;13.142;2023-07-20T02:29:28;2.80;;;1.40;;
15006;SDS011;7599;50.748;13.142;2023-07-20T02:32:33;2.95;;;1.73;;
15006;SDS011;7599;50.748;13.142;2023-07-20T02:35:36;3.08;;;1.73;;
15006;SDS011;7599;50.748;13.142;2023-07-20T02:38:39;3.72;;;1.48;;
15006;SDS011;7599;50.748;13.142;2023-07-20T02:41:42;3.00;;;1.80;;
15006;SDS011;7599;50.748;13.142;2023-07-20T02:44:45;1.92;;;1.60;;
15006;SDS011;7599;50.748;13.142;2023-07-20T02:47:49;1.98;;;1.73;;
15006;SDS011;7599;50.748;13.142;2023-07-20T02:50:52;3.35;;;1.55;;
15006;SDS011;7599;50.748;13.142;2023-07-20T02:53:54;2.53;;;1.67;;
15006;SDS011;7599;50.748;13.142;2023-07-20T02:56:57;1.92;;;1.27;;
15006;SDS011;7599;50.748;13.142;2023-07-20T03:00:00;2.20;;;1.90;;
15006;SDS011;7599;50.748;13.142;2023-07-20T03:03:06;1.85;;;1.50;;
15006;SDS011;7599;50.748;13.142;2023-07-20T03:06:11;3.65;;;1.77;;
15006;SDS011;7599;50.748;13.142;2023-07-20T03:09:14;2.40;;;1.60;;
15006;SDS011;7599;50.748;13.142;2023-07-20T03:12:17;2.17;;;1.58;;
15006;SDS011;7599;50.748;13.142;2023-07-20T03:15:19;3.80;;;2.05;;
15006;SDS011;7599;50.748;13.142;2023-07-20T03:18:24;3.78;;;1.48;;
15006;SDS011;7599;50.748;13.142;2023-07-20T03:21:27;5.47;;;2.00;;
15006;SDS011;7599;50.748;13.142;2023-07-20T03:24:30;2.38;;;1.50;;
15006;SDS011;7599;50.748;13.142;2023-07-20T03:27:34;2.63;;;1.75;;
15006;SDS011;7599;50.748;13.142;2023-07-20T03:30:37;2.88;;;2.00;;
15006;SDS011;7599;50.748;13.142;2023-07-20T03:33:41;2.50;;;1.70;;
15006;SDS011;7599;50.748;13.142;2023-07-20T03:36:43;2.92;;;1.60;;
15006;SDS011;7599;50.748;13.142;2023-07-20T03:39:46;4.10;;;2.00;;
15006;SDS011;7599;50.748;13.142;2023-07-20T03:42:49;2.38;;;1.55;;
15006;SDS011;7599;50.748;13.142;2023-07-20T03:45:52;2.83;;;1.90;;
15006;SDS011;7599;50.748;13.142;2023-07-20T03:48:57;2.92;;;1.30;;
15006;SDS011;7599;50.748;13.142;2023-07-20T03:52:00;4.30;;;1.20;;
15006;SDS011;7599;50.748;13.142;2023-07-20T03:55:04;2.15;;;1.60;;
15006;SDS011;7599;50.748;13.142;2023-07-20T03:58:07;1.50;;;1.27;;
15006;SDS011;7599;50.748;13.142;2023-07-20T04:01:10;3.88;;;1.70;;
15006;SDS011;7599;50.748;13.142;2023-07-20T04:04:15;2.75;;;1.52;;
15006;SDS011;7599;50.748;13.142;2023-07-20T04:07:18;1.98;;;1.67;;
15006;SDS011;7599;50.748;13.142;2023-07-20T04:10:21;2.85;;;1.40;;
15006;SDS011;7599;50.748;13.142;2023-07-20T04:13:24;2.97;;;1.50;;
15006;SDS011;7599;50.748;13.142;2023-07-20T04:16:27;2.97;;;1.63;;
15006;SDS011;7599;50.748;13.142;2023-07-20T04:19:31;3.05;;;1.75;;
15006;SDS011;7599;50.748;13.142;2023-07-20T04:22:34;3.28;;;1.60;;
15006;SDS011;7599;50.748;13.142;2023-07-20T04:25:38;2.10;;;1.25;;
15006;SDS011;7599;50.748;13.142;2023-07-20T04:28:41;2.85;;;1.67;;
15006;SDS011;7599;50.748;13.142;2023-07-20T04:31:44;3.42;;;1.77;;
15006;SDS011;7599;50.748;13.142;2023-07-20T04:34:49;1.80;;;1.27;;
15006;SDS011;7599;50.748;13.142;2023-07-20T04:37:51;2.03;;;1.50;;
15006;SDS011;7599;50.748;13.142;2023-07-20T04:40:54;2.10;;;1.30;;
15006;SDS011;7599;50.748;13.142;2023-07-20T04:43:56;2.10;;;1.38;;
15006;SDS011;7599;50.748;13.142;2023-07-20T04:46:59;2.45;;;1.23;;
15006;SDS011;7599;50.748;13.142;2023-07-20T04:50:04;3.53;;;1.33;;
15006;SDS011;7599;50.748;13.142;2023-07-20T04:53:08;2.50;;;1.30;;
15006;SDS011;7599;50.748;13.142;2023-07-20T04:56:11;2.25;;;1.58;;
15006;SDS011;7599;50.748;13.142;2023-07-20T04:59:14;2.35;;;1.35;;
15006;SDS011;7599;50.748;13.142;2023-07-20T05:02:16;1.98;;;1.10;;
15006;SDS011;7599;50.748;13.142;2023-07-20T05:05:20;2.08;;;1.40;;
15006;SDS011;7599;50.748;13.142;2023-07-20T05:08:24;1.65;;;1.33;;
15006;SDS011;7599;50.748;13.142;2023-07-20T05:11:28;3.72;;;1.45;;
15006;SDS011;7599;50.748;13.142;2023-07-20T05:14:30;1.83;;;1.20;;
15006;SDS011;7599;50.748;13.142;2023-07-20T05:17:33;1.83;;;1.58;;
15006;SDS011;7599;50.748;13.142;2023-07-20T05:20:37;2.15;;;1.40;;
15006;SDS011;7599;50.748;13.142;2023-07-20T05:23:40;1.90;;;1.40;;
15006;SDS011;7599;50.748;13.142;2023-07-20T05:26:43;1.65;;;1.27;;
15006;SDS011;7599;50.748;13.142;2023-07-20T05:29:45;2.90;;;1.33;;
15006;SDS011;7599;50.748;13.142;2023-07-20T05:32:48;2.92;;;1.48;;
15006;SDS011;7599;50.748;13.142;2023-07-20T05:35:55;1.98;;;1.23;;
15006;SDS011;7599;50.748;13.142;2023-07-20T05:38:57;2.50;;;1.27;;
15006;SDS011;7599;50.748;13.142;2023-07-20T05:42:00;10.43;;;1.52;;
15006;SDS011;7599;50.748;13.142;2023-07-20T05:45:03;3.88;;;1.30;;
15006;SDS011;7599;50.748;13.142;2023-07-20T05:48:06;6.32;;;1.63;;
15006;SDS011;7599;50.748;13.142;2023-07-20T05:51:12;4.38;;;1.52;;
15006;SDS011;7599;50.748;13.142;2023-07-20T05:54:15;2.78;;;1.40;;
15006;SDS011;7599;50.748;13.142;2023-07-20T05:57:18;2.75;;;1.30;;
15006;SDS011;7599;50.748;13.142;2023-07-20T06:00:20;2.60;;;1.25;;
15006;SDS011;7599;50.748;13.142;2023-07-20T06:03:27;3.15;;;1.55;;
15006;SDS011;7599;50.748;13.142;2023-07-20T06:06:32;2.67;;;1.20;;
15006;SDS011;7599;50.748;13.142;2023-07-20T06:09:35;3.30;;;1.20;;
15006;SDS011;7599;50.748;13.142;2023-07-20T06:12:38;4.68;;;1.40;;
15006;SDS011;7599;50.748;13.142;2023-07-20T06:15:41;2.30;;;1.00;;
15006;SDS011;7599;50.748;13.142;2023-07-20T06:18:43;1.73;;;1.00;;
15006;SDS011;7599;50.748;13.142;2023-07-20T06:21:47;2.50;;;1.98;;
15006;SDS011;7599;50.748;13.142;2023-07-20T06:24:50;5.47;;;1.30;;
15006;SDS011;7599;50.748;13.142;2023-07-20T06:27:54;4.18;;;1.20;;
15006;SDS011;7599;50.748;13.142;2023-07-20T06:31:00;3.03;;;1.15;;
15006;SDS011;7599;50.748;13.142;2023-07-20T06:34:03;8.02;;;1.20;;
15006;SDS011;7599;50.748;13.142;2023-07-20T06:37:07;3.45;;;1.60;;
15006;SDS011;7599;50.748;13.142;2023-07-20T06:40:10;5.20;;;1.42;;
15006;SDS011;7599;50.748;13.142;2023-07-20T06:43:16;6.25;;;1.35;;
15006;SDS011;7599;50.748;13.142;2023-07-20T06:46:22;3.63;;;1.52;;
15006;SDS011;7599;50.748;13.142;2023-07-20T06:49:26;4.47;;;1.50;;
15006;SDS011;7599;50.748;13.142;2023-07-20T06:52:30;5.60;;;1.75;;
15006;SDS011;7599;50.748;13.142;2023-07-20T06:55:33;4.65;;;1.60;;
15006;SDS011;7599;50.748;13.142;2023-07-20T06:58:42;2.25;;;1.17;;
15006;SDS011;7599;50.748;13.142;2023-07-20T07:01:45;4.10;;;1.30;;
15006;SDS011;7599;50.748;13.142;2023-07-20T07:04:48;4.13;;;1.40;;
15006;SDS011;7599;50.748;13.142;2023-07-20T07:08:00;4.20;;;1.40;;
15006;SDS011;7599;50.748;13.142;2023-07-20T07:11:03;2.17;;;1.17;;
15006;SDS011;7599;50.748;13.142;2023-07-20T07:14:06;4.28;;;1.65;;
15006;SDS011;7599;50.748;13.142;2023-07-20T07:17:09;3.08;;;1.48;;
15006;SDS011;7599;50.748;13.142;2023-07-20T07:20:12;3.40;;;1.00;;
15006;SDS011;7599;50.748;13.142;2023-07-20T07:23:23;7.22;;;1.30;;
15006;SDS011;7599;50.748;13.142;2023-07-20T07:26:25;6.38;;;1.70;;
15006;SDS011;7599;50.748;13.142;2023-07-20T07:29:28;4.20;;;1.17;;
15006;SDS011;7599;50.748;13.142;2023-07-20T07:32:31;7.68;;;1.27;;
15006;SDS011;7599;50.748;13.142;2023-07-20T07:35:34;6.93;;;1.30;;
15006;SDS011;7599;50.748;13.142;2023-07-20T07:38:38;5.35;;;1.20;;
15006;SDS011;7599;50.748;13.142;2023-07-20T07:42:00;2.55;;;1.40;;
15006;SDS011;7599;50.748;13.142;2023-07-20T07:45:03;3.85;;;1.08;;
15006;SDS011;7599;50.748;13.142;2023-07-20T07:48:06;3.40;;;1.10;;
15006;SDS011;7599;50.748;13.142;2023-07-20T07:51:12;1.83;;;1.13;;
15006;SDS011;7599;50.748;13.142;2023-07-20T07:54:18;1.63;;;0.70;;
15006;SDS011;7599;50.748;13.142;2023-07-20T07:57:20;2.60;;;0.93;;
15006;SDS011;7599;50.748;13.142;2023-07-20T08:00:23;4.38;;;1.00;;
15006;SDS011;7599;50.748;13.142;2023-07-20T08:03:26;2.72;;;1.00;;
15006;SDS011;7599;50.748;13.142;2023-07-20T08:06:28;2.17;;;0.80;;
15006;SDS011;7599;50.748;13.142;2023-07-20T08:09:34;6.30;;;1.15;;
15006;SDS011;7599;50.748;13.142;2023-07-20T08:12:36;3.58;;;0.80;;
15006;SDS011;7599;50.748;13.142;2023-07-20T08:15:39;2.20;;;0.90;;
15006;SDS011;7599;50.748;13.142;2023-07-20T08:18:43;2.25;;;1.13;;
15006;SDS011;7599;50.748;13.142;2023-07-20T08:21:47;3.42;;;0.90;;
15006;SDS011;7599;50.748;13.142;2023-07-20T08:24:51;4.25;;;0.70;;
15006;SDS011;7599;50.748;13.142;2023-07-20T08:27:53;1.30;;;1.13;;
15006;SDS011;7599;50.748;13.142;2023-07-20T08:30:56;1.85;;;0.98;;
15006;SDS011;7599;50.748;13.142;2023-07-20T08:33:59;1.88;;;0.82;;
15006;SDS011;7599;50.748;13.142;2023-07-20T08:37:10;2.22;;;1.10;;
15006;SDS011;7599;50.748;13.142;2023-07-20T08:40:14;1.90;;;1.10;;
15006;SDS011;7599;50.748;13.142;2023-07-20T08:43:17;1.98;;;1.00;;
15006;SDS011;7599;50.748;13.142;2023-07-20T08:46:20;2.40;;;0.85;;
15006;SDS011;7599;50.748;13.142;2023-07-20T08:49:24;1.38;;;1.10;;
15006;SDS011;7599;50.748;13.142;2023-07-20T08:52:27;1.40;;;1.00;;
15006;SDS011;7599;50.748;13.142;2023-07-20T08:55:31;1.17;;;1.00;;
15006;SDS011;7599;50.748;13.142;2023-07-20T08:58:34;1.33;;;1.00;;
15006;SDS011;7599;50.748;13.142;2023-07-20T09:01:38;1.60;;;0.77;;
15006;SDS011;7599;50.748;13.142;2023-07-20T09:04:41;1.13;;;1.02;;
15006;SDS011;7599;50.748;13.142;2023-07-20T09:07:44;1.60;;;0.70;;
15006;SDS011;7599;50.748;13.142;2023-07-20T09:10:50;0.90;;;0.80;;
15006;SDS011;7599;50.748;13.142;2023-07-20T09:14:01;2.20;;;1.17;;
15006;SDS011;7599;50.748;13.142;2023-07-20T09:17:05;18.77;;;1.70;;
15006;SDS011;7599;50.748;13.142;2023-07-20T09:20:08;1.63;;;0.80;;
15006;SDS011;7599;50.748;13.142;2023-07-20T09:23:12;3.40;;;1.13;;
15006;SDS011;7599;50.748;13.142;2023-07-20T09:26:16;4.70;;;1.38;;
15006;SDS011;7599;50.748;13.142;2023-07-20T09:29:19;1.73;;;1.20;;
15006;SDS011;7599;50.748;13.142;2023-07-20T09:32:22;2.90;;;1.50;;
15006;SDS011;7599;50.748;13.142;2023-07-20T09:35:26;1.83;;;1.40;;
15006;SDS011;7599;50.748;13.142;2023-07-20T09:38:43;2.47;;;1.27;;
15006;SDS011;7599;50.748;13.142;2023-07-20T09:41:50;2.13;;;1.30;;
15006;SDS011;7599;50.748;13.142;2023-07-20T09:45:13;2.05;;;1.70;;
15006;SDS011;7599;50.748;13.142;2023-07-20T09:48:16;4.05;;;2.10;;
15006;SDS011;7599;50.748;13.142;2023-07-20T09:51:26;3.30;;;1.00;;
15006;SDS011;7599;50.748;13.142;2023-07-20T09:54:30;3.22;;;1.40;;
15006;SDS011;7599;50.748;13.142;2023-07-20T09:57:35;2.72;;;1.30;;
15006;SDS011;7599;50.748;13.142;2023-07-20T10:00:38;4.07;;;1.25;;
15006;SDS011;7599;50.748;13.142;2023-07-20T10:03:47;2.55;;;1.23;;
15006;SDS011;7599;50.748;13.142;2023-07-20T10:06:56;2.08;;;1.20;;
15006;SDS011;7599;50.748;13.142;2023-07-20T10:10:05;8.63;;;1.10;;
15006;SDS011;7599;50.748;13.142;2023-07-20T10:13:15;2.17;;;1.00;;
15006;SDS011;7599;50.748;13.142;2023-07-20T10:16:22;3.22;;;1.38;;
15006;SDS011;7599;50.748;13.142;2023-07-20T10:19:30;3.33;;;1.40;;
15006;SDS011;7599;50.748;13.142;2023-07-20T10:22:36;2.38;;;1.10;;
15006;SDS011;7599;50.748;13.142;2023-07-20T10:25:43;2.47;;;1.15;;
15006;SDS011;7599;50.748;13.142;2023-07-20T10:28:48;3.95;;;1.20;;
15006;SDS011;7599;50.748;13.142;2023-07-20T10:31:51;3.72;;;1.48;;
15006;SDS011;7599;50.748;13.142;2023-07-20T10:34:56;3.05;;;1.25;;
15006;SDS011;7599;50.748;13.142;2023-07-20T10:38:02;2.08;;;1.20;;
15006;SDS011;7599;50.748;13.142;2023-07-20T10:41:15;2.15;;;0.95;;
15006;SDS011;7599;50.748;13.142;2023-07-20T10:44:22;1.50;;;1.17;;
15006;SDS011;7599;50.748;13.142;2023-07-20T10:47:25;1.90;;;1.00;;
15006;SDS011;7599;50.748;13.142;2023-07-20T10:50:28;1.40;;;1.27;;
15006;SDS011;7599;50.748;13.142;2023-07-20T10:53:33;2.95;;;1.20;;
15006;SDS011;7599;50.748;13.142;2023-07-20T10:56:37;3.15;;;1.38;;
15006;SDS011;7599;50.748;13.142;2023-07-20T10:59:41;1.60;;;1.40;;
15006;SDS011;7599;50.748;13.142;2023-07-20T11:02:45;2.67;;;1.00;;
15006;SDS011;7599;50.748;13.142;2023-07-20T11:05:52;1.65;;;0.88;;
15006;SDS011;7599;50.748;13.142;2023-07-20T11:08:54;2.67;;;1.20;;
15006;SDS011;7599;50.748;13.142;2023-07-20T11:12:08;1.20;;;0.90;;
15006;SDS011;7599;50.748;13.142;2023-07-20T11:15:13;1.60;;;1.10;;
15006;SDS011;7599;50.748;13.142;2023-07-20T11:18:16;1.23;;;0.90;;
15006;SDS011;7599;50.748;13.142;2023-07-20T11:21:20;1.48;;;1.10;;
15006;SDS011;7599;50.748;13.142;2023-07-20T11:24:23;1.50;;;1.00;;
15006;SDS011;7599;50.748;13.142;2023-07-20T11:27:26;0.98;;;0.90;;
15006;SDS011;7599;50.748;13.142;2023-07-20T11:30:33;2.92;;;1.00;;
15006;SDS011;7599;50.748;13.142;2023-07-20T11:33:36;0.90;;;0.80;;
15006;SDS011;7599;50.748;13.142;2023-07-20T11:36:40;0.95;;;0.85;;
15006;SDS011;7599;50.748;13.142;2023-07-20T11:39:47;2.85;;;1.02;;
15006;SDS011;7599;50.748;13.142;2023-07-20T11:42:49;2.47;;;0.80;;
15006;SDS011;7599;50.748;13.142;2023-07-20T11:45:57;1.23;;;0.80;;
15006;SDS011;7599;50.748;13.142;2023-07-20T11:49:00;1.60;;;0.70;;
15006;SDS011;7599;50.748;13.142;2023-07-20T11:52:04;1.80;;;0.73;;
15006;SDS011;7599;50.748;13.142;2023-07-20T11:55:08;2.75;;;1.00;;
15006;SDS011;7599;50.748;13.142;2023-07-20T11:58:12;2.65;;;0.90;;
15006;SDS011;7599;50.748;13.142;2023-07-20T12:01:19;1.38;;;1.17;;
15006;SDS011;7599;50.748;13.142;2023-07-20T12:04:22;1.13;;;0.80;;
15006;SDS011;7599;50.748;13.142;2023-07-20T12:07:25;1.40;;;0.73;;
15006;SDS011;7599;50.748;13.142;2023-07-20T12:10:30;1.20;;;0.88;;
15006;SDS011;7599;50.748;13.142;2023-07-20T12:13:36;1.00;;;0.80;;
15006;SDS011;7599;50.748;13.142;2023-07-20T12:16:41;2.13;;;0.82;;
15006;SDS011;7599;50.748;13.142;2023-07-20T12:19:44;1.60;;;0.93;;
15006;SDS011;7599;50.748;13.142;2023-07-20T12:22:47;1.25;;;1.13;;
15006;SDS011;7599;50.748;13.142;2023-07-20T12:25:50;1.52;;;1.10;;
15006;SDS011;7599;50.748;13.142;2023-07-20T12:28:53;1.52;;;0.75;;
15006;SDS011;7599;50.748;13.142;2023-07-20T12:31:57;1.20;;;0.70;;
15006;SDS011;7599;50.748;13.142;2023-07-20T12:35:00;0.75;;;0.52;;
15006;SDS011;7599;50.748;13.142;2023-07-20T12:38:02;0.90;;;0.60;;
15006;SDS011;7599;50.748;13.142;2023-07-20T12:41:06;0.82;;;0.60;;
15006;SDS011;7599;50.748;13.142;2023-07-20T12:44:09;1.50;;;0.82;;
15006;SDS011;7599;50.748;13.142;2023-07-20T12:47:13;0.85;;;0.50;;
15006;SDS011;7599;50.748;13.142;2023-07-20T12:50:16;1.02;;;0.90;;
15006;SDS011;7599;50.748;13.142;2023-07-20T12:53:18;0.65;;;0.50;;
15006;SDS011;7599;50.748;13.142;2023-07-20T12:56:21;0.70;;;0.60;;
15006;SDS011;7599;50.748;13.142;2023-07-20T12:59:26;1.38;;;0.60;;
15006;SDS011;7599;50.748;13.142;2023-07-20T13:02:31;1.73;;;0.63;;
15006;SDS011;7599;50.748;13.142;2023-07-20T13:05:34;0.65;;;0.55;;
15006;SDS011;7599;50.748;13.142;2023-07-20T13:08:40;1.17;;;0.65;;
15006;SDS011;7599;50.748;13.142;2023-07-20T13:11:43;0.95;;;0.77;;
15006;SDS011;7599;50.748;13.142;2023-07-20T13:14:46;1.95;;;0.90;;
15006;SDS011;7599;50.748;13.142;2023-07-20T13:21:15;2.17;;;1.05;;
15006;SDS011;7599;50.748;13.142;2023-07-20T13:24:18;2.97;;;0.60;;
15006;SDS011;7599;50.748;13.142;2023-07-20T13:27:20;2.65;;;0.88;;
15006;SDS011;7599;50.748;13.142;2023-07-20T13:30:23;2.95;;;0.70;;
15006;SDS011;7599;50.748;13.142;2023-07-20T13:33:29;1.25;;;0.63;;
15006;SDS011;7599;50.748;13.142;2023-07-20T13:36:36;1.80;;;0.60;;
15006;SDS011;7599;50.748;13.142;2023-07-20T13:39:39;1.85;;;0.65;;
15006;SDS011;7599;50.748;13.142;2023-07-20T13:42:42;1.60;;;0.90;;
15006;SDS011;7599;50.748;13.142;2023-07-20T13:45:45;1.38;;;0.55;;
15006;SDS011;7599;50.748;13.142;2023-07-20T13:48:49;2.50;;;0.98;;
15006;SDS011;7599;50.748;13.142;2023-07-20T13:51:55;3.70;;;0.90;;
15006;SDS011;7599;50.748;13.142;2023-07-20T13:55:01;3.88;;;0.90;;
15006;SDS011;7599;50.748;13.142;2023-07-20T13:58:10;1.05;;;0.70;;
15006;SDS011;7599;50.748;13.142;2023-07-20T14:01:17;6.50;;;1.10;;
15006;SDS011;7599;50.748;13.142;2023-07-20T14:04:43;7.38;;;0.73;;
15006;SDS011;7599;50.748;13.142;2023-07-20T14:08:13;1.98;;;0.70;;
15006;SDS011;7599;50.748;13.142;2023-07-20T14:11:29;4.22;;;0.80;;
15006;SDS011;7599;50.748;13.142;2023-07-20T14:14:55;6.35;;;0.90;;
15006;SDS011;7599;50.748;13.142;2023-07-20T14:18:09;2.72;;;0.73;;
15006;SDS011;7599;50.748;13.142;2023-07-20T14:21:20;0.95;;;0.60;;
15006;SDS011;7599;50.748;13.142;2023-07-20T14:24:27;2.03;;;1.00;;
15006;SDS011;7599;50.748;13.142;2023-07-20T14:27:45;1.20;;;0.88;;
15006;SDS011;7599;50.748;13.142;2023-07-20T14:30:51;1.17;;;0.70;;
15006;SDS011;7599;50.748;13.142;2023-07-20T14:33:57;1.30;;;1.00;;
15006;SDS011;7599;50.748;13.142;2023-07-20T14:37:05;1.40;;;0.85;;
15006;SDS011;7599;50.748;13.142;2023-07-20T14:40:12;0.98;;;0.88;;
15006;SDS011;7599;50.748;13.142;2023-07-20T14:43:23;2.03;;;0.98;;
15006;SDS011;7599;50.748;13.142;2023-07-20T14:46:26;1.25;;;0.98;;
15006;SDS011;7599;50.748;13.142;2023-07-20T14:49:29;0.80;;;0.80;;
15006;SDS011;7599;50.748;13.142;2023-07-20T14:52:34;1.55;;;1.00;;
15006;SDS011;7599;50.748;13.142;2023-07-20T14:55:51;2.15;;;0.88;;
15006;SDS011;7599;50.748;13.142;2023-07-20T14:59:07;2.60;;;1.00;;
15006;SDS011;7599;50.748;13.142;2023-07-20T15:02:11;2.45;;;0.80;;
15006;SDS011;7599;50.748;13.142;2023-07-20T15:05:20;1.77;;;1.02;;
15006;SDS011;7599;50.748;13.142;2023-07-20T15:08:24;1.73;;;1.00;;
15006;SDS011;7599;50.748;13.142;2023-07-20T15:11:27;1.05;;;0.80;;
15006;SDS011;7599;50.748;13.142;2023-07-20T15:14:30;1.15;;;0.88;;
15006;SDS011;7599;50.748;13.142;2023-07-20T15:17:33;4.10;;;1.35;;
15006;SDS011;7599;50.748;13.142;2023-07-20T15:20:36;2.05;;;0.88;;
15006;SDS011;7599;50.748;13.142;2023-07-20T15:23:40;2.50;;;1.10;;
15006;SDS011;7599;50.748;13.142;2023-07-20T15:26:43;3.38;;;1.10;;
15006;SDS011;7599;50.748;13.142;2023-07-20T15:29:46;1.65;;;1.15;;
15006;SDS011;7599;50.748;13.142;2023-07-20T15:32:48;1.40;;;0.90;;
15006;SDS011;7599;50.748;13.142;2023-07-20T15:35:54;1.83;;;0.98;;
15006;SDS011;7599;50.748;13.142;2023-07-20T15:38:58;1.25;;;1.00;;
15006;SDS011;7599;50.748;13.142;2023-07-20T15:42:01;1.20;;;0.88;;
15006;SDS011;7599;50.748;13.142;2023-07-20T15:45:05;2.95;;;1.00;;
15006;SDS011;7599;50.748;13.142;2023-07-20T15:48:08;1.17;;;0.90;;
15006;SDS011;7599;50.748;13.142;2023-07-20T15:51:11;2.97;;;1.05;;
15006;SDS011;7599;50.748;13.142;2023-07-20T15:54:16;3.53;;;1.00;;
15006;SDS011;7599;50.748;13.142;2023-07-20T15:57:19;2.97;;;0.90;;
15006;SDS011;7599;50.748;13.142;2023-07-20T16:00:21;2.38;;;1.40;;
15006;SDS011;7599;50.748;13.142;2023-07-20T16:03:25;2.58;;;0.60;;
15006;SDS011;7599;50.748;13.142;2023-07-20T16:06:38;1.50;;;0.90;;
15006;SDS011;7599;50.748;13.142;2023-07-20T16:09:42;2.53;;;0.70;;
15006;SDS011;7599;50.748;13.142;2023-07-20T16:12:47;1.13;;;1.00;;
15006;SDS011;7599;50.748;13.142;2023-07-20T16:15:49;3.38;;;0.88;;
15006;SDS011;7599;50.748;13.142;2023-07-20T16:18:54;1.33;;;0.90;;
15006;SDS011;7599;50.748;13.142;2023-07-20T16:21:57;0.70;;;0.70;;
15006;SDS011;7599;50.748;13.142;2023-07-20T16:25:01;1.00;;;0.95;;
15006;SDS011;7599;50.748;13.142;2023-07-20T16:28:05;2.15;;;0.80;;
15006;SDS011;7599;50.748;13.142;2023-07-20T16:31:08;0.85;;;0.85;;
15006;SDS011;7599;50.748;13.142;2023-07-20T16:34:11;1.63;;;0.88;;
15006;SDS011;7599;50.748;13.142;2023-07-20T16:37:14;0.85;;;0.75;;
15006;SDS011;7599;50.748;13.142;2023-07-20T16:40:23;1.58;;;1.00;;
15006;SDS011;7599;50.748;13.142;2023-07-20T16:43:32;0.73;;;0.50;;
15006;SDS011;7599;50.748;13.142;2023-07-20T16:46:58;1.58;;;0.95;;
15006;SDS011;7599;50.748;13.142;2023-07-20T16:50:02;1.48;;;0.88;;
15006;SDS011;7599;50.748;13.142;2023-07-20T16:53:10;1.00;;;1.00;;
15006;SDS011;7599;50.748;13.142;2023-07-20T16:56:23;1.38;;;0.80;;
15006;SDS011;7599;50.748;13.142;2023-07-20T16:59:26;2.65;;;0.90;;
15006;SDS011;7599;50.748;13.142;2023-07-20T17:02:31;2.47;;;1.00;;
15006;SDS011;7599;50.748;13.142;2023-07-20T17:05:35;3.47;;;0.80;;
15006;SDS011;7599;50.748;13.142;2023-07-20T17:08:42;1.58;;;0.80;;
15006;SDS011;7599;50.748;13.142;2023-07-20T17:24:19;1.50;;;0.63;;
15006;SDS011;7599;50.748;13.142;2023-07-20T17:27:41;3.17;;;0.90;;
15006;SDS011;7599;50.748;13.142;2023-07-20T17:31:00;2.67;;;1.00;;
15006;SDS011;7599;50.748;13.142;2023-07-20T17:34:06;1.50;;;0.70;;
15006;SDS011;7599;50.748;13.142;2023-07-20T17:37:10;1.58;;;0.80;;
15006;SDS011;7599;50.748;13.142;2023-07-20T17:40:18;0.75;;;0.70;;
15006;SDS011;7599;50.748;13.142;2023-07-20T17:43:26;1.77;;;0.63;;
15006;SDS011;7599;50.748;13.142;2023-07-20T17:46:49;0.70;;;0.50;;
15006;SDS011;7599;50.748;13.142;2023-07-20T17:50:13;1.35;;;0.50;;
15006;SDS011;7599;50.748;13.142;2023-07-20T17:57:36;1.35;;;0.70;;
15006;SDS011;7599;50.748;13.142;2023-07-20T18:01:05;3.00;;;0.65;;
15006;SDS011;7599;50.748;13.142;2023-07-20T18:04:22;0.40;;;0.40;;
15006;SDS011;7599;50.748;13.142;2023-07-20T18:07:39;1.00;;;0.70;;
15006;SDS011;7599;50.748;13.142;2023-07-20T18:14:41;1.83;;;0.60;;
15006;SDS011;7599;50.748;13.142;2023-07-20T18:18:07;2.55;;;0.90;;
15006;SDS011;7599;50.748;13.142;2023-07-20T18:21:10;1.60;;;0.50;;
15006;SDS011;7599;50.748;13.142;2023-07-20T18:24:16;2.30;;;0.52;;
15006;SDS011;7599;50.748;13.142;2023-07-20T18:27:20;0.60;;;0.60;;
15006;SDS011;7599;50.748;13.142;2023-07-20T18:30:22;0.50;;;0.50;;
15006;SDS011;7599;50.748;13.142;2023-07-20T18:33:27;0.47;;;0.47;;
15006;SDS011;7599;50.748;13.142;2023-07-20T18:36:32;0.68;;;0.50;;
15006;SDS011;7599;50.748;13.142;2023-07-20T18:39:51;1.13;;;0.80;;
15006;SDS011;7599;50.748;13.142;2023-07-20T18:42:55;0.55;;;0.40;;
15006;SDS011;7599;50.748;13.142;2023-07-20T18:45:58;0.70;;;0.50;;
15006;SDS011;7599;50.748;13.142;2023-07-20T18:49:01;2.28;;;0.50;;
15006;SDS011;7599;50.748;13.142;2023-07-20T18:52:05;0.55;;;0.50;;
15006;SDS011;7599;50.748;13.142;2023-07-20T18:55:22;0.70;;;0.60;;
15006;SDS011;7599;50.748;13.142;2023-07-20T18:58:27;0.75;;;0.70;;
15006;SDS011;7599;50.748;13.142;2023-07-20T19:01:30;1.05;;;0.50;;
15006;SDS011;7599;50.748;13.142;2023-07-20T19:04:35;0.90;;;0.73;;
15006;SDS011;7599;50.748;13.142;2023-07-20T19:07:40;0.68;;;0.60;;
15006;SDS011;7599;50.748;13.142;2023-07-20T19:10:44;0.85;;;0.50;;
15006;SDS011;7599;50.748;13.142;2023-07-20T19:14:02;1.20;;;0.77;;
15006;SDS011;7599;50.748;13.142;2023-07-20T19:17:08;0.60;;;0.60;;